メインページ
METAR-TAF:

METAR-TAF

空港 :

ラームサル空港

ラームサル, イラン

緯度: 36-54N, 経度: 050-40E, 海抜: -23m

現時点の気象観測

当レポートは40分前の06:00(UTC)に作成
の風 4kt
気温 13°C
湿度 100%
気圧 1017 hPa
視程: 5000m
高度1000ftの千切れ雲あり
高度8000ftの曇り

METAR: OINR 040600Z 08004KT 5000 BR BKN010 OVC080 13/13 Q1017

時間: 11:10 (06:40 UTC)


TAF: 見つかりません

4,000以上の空港の気象観測と天気予報(METAR報とTAF報)

利用可能な観測所は地図上に黄色い丸と赤い丸で示す。

丸の上にカーソルを重ねると観測所名を参照できる。

次にクリックすると気象観測と天気予報を参照できる。

マップの切り替え:黒色「×」印の緑ボタンをクリックして拡大、「-」印の緑ボタンをクリックして縮小、緑色の三角印をクリックして隣りの地図に切り替え


METAR-TAF: